Time;durP1;ratioP1;P1;durP2;ratioP2;P2;SDS_P1;SDS_P2;PMS_P1;PMS_P2;Temp;Humidity;BMP_temperature;BMP_pressure;BME280_temperature;BME280_humidity;BME280_pressure;Samples;Min_cycle;Max_cycle;Signal;HPM_P1;HPM_P2
2023/12/07 05:47:23;;;;;;;46.80;29.80;;;1.90;99.90;;;;;;6330618;22;20502;-85
2023/12/07 05:49:49;;;;;;;45.00;28.60;;;1.90;99.90;;;;;;6315788;22;20250;-85
2023/12/07 05:52:14;;;;;;;43.57;27.10;;;1.90;99.90;;;;;;6316926;22;20175;-86
2023/12/07 05:54:43;;;;;;;39.77;25.87;;;1.90;99.90;;;;;;6290486;22;20179;-87
2023/12/07 05:57:09;;;;;;;38.87;25.60;;;1.90;99.90;;;;;;6316808;22;20128;-87
2023/12/07 05:59:39;;;;;;;42.43;26.10;;;2.00;99.90;;;;;;6289415;22;20159;-88
2023/12/07 06:02:05;;;;;;;40.77;24.53;;;1.90;99.90;;;;;;6290604;22;20205;-86
2023/12/07 06:04:30;;;;;;;40.90;26.10;;;1.90;99.90;;;;;;6290705;22;20155;-86
2023/12/07 06:06:56;;;;;;;38.23;25.07;;;1.90;99.90;;;;;;6289892;22;20155;-86
2023/12/07 06:09:22;;;;;;;38.90;25.77;;;1.90;99.90;;;;;;6317965;22;20167;-86
2023/12/07 06:11:48;;;;;;;41.10;26.57;;;1.90;99.90;;;;;;6290630;22;20182;-86
2023/12/07 06:14:14;;;;;;;41.60;25.10;;;1.90;99.90;;;;;;6290847;22;20155;-86
2023/12/07 06:16:40;;;;;;;37.80;24.60;;;1.90;99.90;;;;;;6290504;22;20167;-86
2023/12/07 06:19:05;;;;;;;38.10;25.30;;;1.90;99.90;;;;;;6290819;22;20166;-86
2023/12/07 06:21:31;;;;;;;40.23;26.17;;;1.90;99.90;;;;;;6290804;22;20154;-86
2023/12/07 06:23:58;;;;;;;39.53;24.70;;;1.90;99.90;;;;;;6290837;22;20159;-86
2023/12/07 06:26:24;;;;;;;39.83;25.80;;;1.90;99.90;;;;;;6317961;22;20233;-86
2023/12/07 06:28:51;;;;;;;40.47;26.70;;;1.90;99.90;;;;;;6290699;22;20163;-85
2023/12/07 06:31:19;;;;;;;36.17;23.33;;;1.90;99.90;;;;;;6290167;22;20177;-85
2023/12/07 06:33:48;;;;;;;38.23;23.70;;;1.90;99.90;;;;;;6317942;22;20190;-85
2023/12/07 06:36:24;;;;;;;37.83;24.93;;;1.90;99.90;;;;;;6317273;22;20614;-85
2023/12/07 06:38:50;;;;;;;34.57;23.50;;;1.90;99.90;;;;;;6290485;22;20205;-86
2023/12/07 06:41:16;;;;;;;35.97;23.77;;;1.90;99.90;;;;;;6290631;22;20160;-85
2023/12/07 06:43:43;;;;;;;38.30;24.73;;;1.90;99.90;;;;;;6290371;22;20209;-86
2023/12/07 06:46:11;;;;;;;43.30;23.97;;;1.90;99.90;;;;;;6305163;22;20199;-85
2023/12/07 06:48:37;;;;;;;33.73;22.93;;;1.90;99.90;;;;;;6314422;22;20151;-85
2023/12/07 06:51:03;;;;;;;36.43;24.50;;;1.90;99.90;;;;;;6314397;22;20151;-86
2023/12/07 06:53:31;;;;;;;36.50;24.67;;;1.90;99.90;;;;;;6314761;22;20177;-86
2023/12/07 06:55:57;;;;;;;36.10;24.37;;;1.90;99.90;;;;;;6313859;22;20163;-84
2023/12/07 06:58:23;;;;;;;39.20;23.50;;;1.90;99.90;;;;;;6314495;22;20159;-86
2023/12/07 07:00:49;;;;;;;35.53;23.67;;;1.90;99.90;;;;;;6314730;22;20634;-86
2023/12/07 07:03:15;;;;;;;37.53;23.33;;;1.90;99.90;;;;;;6314451;22;20155;-86
2023/12/07 07:05:41;;;;;;;35.90;23.20;;;1.90;99.90;;;;;;6313966;22;20187;-84
2023/12/07 07:08:08;;;;;;;31.87;22.23;;;2.00;99.90;;;;;;6314796;22;20162;-85
2023/12/07 07:10:34;;;;;;;33.10;23.37;;;2.00;99.90;;;;;;6314085;22;20254;-86
2023/12/07 07:13:04;;;;;;;35.83;21.57;;;2.00;99.90;;;;;;6314308;22;20155;-85
2023/12/07 07:15:33;;;;;;;34.73;22.87;;;2.00;99.90;;;;;;6314669;22;20220;-86
2023/12/07 07:17:59;;;;;;;32.93;21.30;;;2.00;99.90;;;;;;6314169;22;20160;-86
2023/12/07 07:20:25;;;;;;;32.40;21.53;;;2.00;99.90;;;;;;6314734;22;20147;-85
2023/12/07 07:22:51;;;;;;;35.23;23.20;;;2.00;99.90;;;;;;6314534;22;20454;-85
2023/12/07 07:25:18;;;;;;;32.40;21.60;;;2.00;99.90;;;;;;6313710;22;20179;-86
2023/12/07 07:27:48;;;;;;;29.00;21.50;;;2.00;99.90;;;;;;6314550;22;20191;-86
2023/12/07 07:30:14;;;;;;;30.23;21.20;;;2.00;99.90;;;;;;6314378;22;20148;-85
2023/12/07 07:32:40;;;;;;;33.73;22.40;;;2.00;99.90;;;;;;6314749;22;20270;-86
2023/12/07 07:35:06;;;;;;;30.37;21.37;;;2.00;99.90;;;;;;6341520;22;20465;-85
2023/12/07 07:37:32;;;;;;;32.00;21.90;;;2.00;99.90;;;;;;6314054;22;20163;-85
2023/12/07 07:39:59;;;;;;;30.47;21.67;;;2.00;99.90;;;;;;6314280;22;20228;-85
2023/12/07 07:42:25;;;;;;;30.53;21.97;;;2.00;99.90;;;;;;6313627;22;20154;-86
2023/12/07 07:44:51;;;;;;;34.17;22.37;;;2.00;99.90;;;;;;6313903;22;20183;-85
2023/12/07 07:47:17;;;;;;;29.97;21.23;;;2.00;99.90;;;;;;6313584;22;20203;-86
2023/12/07 07:49:43;;;;;;;30.93;21.80;;;2.00;99.90;;;;;;6314358;22;20155;-85
2023/12/07 07:52:09;;;;;;;28.23;21.87;;;2.10;99.90;;;;;;6313988;22;20151;-85
2023/12/07 07:54:36;;;;;;;30.23;21.17;;;2.00;99.90;;;;;;6314038;22;20151;-86
2023/12/07 07:57:02;;;;;;;31.30;21.37;;;2.10;99.90;;;;;;6313484;22;20163;-85
2023/12/07 07:59:27;;;;;;;33.07;21.67;;;2.10;99.90;;;;;;6313591;22;20156;-85
2023/12/07 08:01:53;;;;;;;30.07;21.00;;;2.10;99.90;;;;;;6313944;22;20162;-86
2023/12/07 08:04:19;;;;;;;30.30;22.43;;;2.10;99.90;;;;;;6314095;22;20151;-84
2023/12/07 08:06:45;;;;;;;32.13;21.83;;;2.10;99.90;;;;;;6341165;22;20186;-86
2023/12/07 08:09:10;;;;;;;30.53;21.60;;;2.10;99.90;;;;;;6313608;22;20158;-85
2023/12/07 08:11:36;;;;;;;30.23;21.40;;;2.10;99.90;;;;;;6313295;22;20147;-85
2023/12/07 08:14:02;;;;;;;33.07;22.30;;;2.10;99.90;;;;;;6313576;22;20205;-86
2023/12/07 08:16:28;;;;;;;30.13;20.80;;;2.10;99.90;;;;;;6313443;22;20157;-85
2023/12/07 08:18:53;;;;;;;29.30;21.43;;;2.10;99.90;;;;;;6313729;22;20223;-85
2023/12/07 08:21:22;;;;;;;32.93;22.67;;;2.20;99.90;;;;;;6313541;22;20147;-85
2023/12/07 08:23:48;;;;;;;29.73;21.60;;;2.20;99.90;;;;;;6313652;22;20207;-85
2023/12/07 08:26:14;;;;;;;33.27;22.50;;;2.20;99.90;;;;;;6313285;22;20273;-86
2023/12/07 08:28:44;;;;;;;30.37;22.23;;;2.20;99.90;;;;;;6341166;22;20159;-85
2023/12/07 08:31:12;;;;;;;31.67;21.90;;;2.20;99.90;;;;;;6313671;22;20609;-86
2023/12/07 08:33:39;;;;;;;34.43;21.77;;;2.20;99.90;;;;;;6313968;22;20565;-85
2023/12/07 08:36:05;;;;;;;34.40;22.80;;;2.30;99.90;;;;;;6313523;22;20159;-85
2023/12/07 08:38:32;;;;;;;34.87;22.10;;;2.30;99.90;;;;;;6313626;22;20159;-85
2023/12/07 08:40:58;;;;;;;31.57;22.00;;;2.30;99.90;;;;;;6313238;22;20160;-86
2023/12/07 08:43:24;;;;;;;31.20;22.27;;;2.30;99.90;;;;;;6341123;22;20228;-86
2023/12/07 08:45:53;;;;;;;36.77;23.07;;;2.30;99.90;;;;;;6301416;22;20278;-86
2023/12/07 08:48:22;;;;;;;32.07;22.33;;;2.30;99.90;;;;;;6282652;22;20227;-85
2023/12/07 08:50:47;;;;;;;34.53;23.00;;;2.30;99.90;;;;;;6282333;22;20520;-84
2023/12/07 08:53:13;;;;;;;35.70;23.67;;;2.30;99.90;;;;;;6282412;22;20152;-85
2023/12/07 08:55:39;;;;;;;33.03;23.03;;;2.30;99.90;;;;;;6282060;22;20164;-88
2023/12/07 08:58:05;;;;;;;29.93;21.40;;;2.40;99.90;;;;;;6282581;22;20156;-86
2023/12/07 09:00:34;;;;;;;30.53;21.77;;;2.40;99.90;;;;;;6282267;22;20187;-85
2023/12/07 09:03:01;;;;;;;32.73;22.83;;;2.50;99.90;;;;;;6282051;22;20197;-86
2023/12/07 09:05:27;;;;;;;32.63;22.70;;;2.40;99.90;;;;;;6281895;22;20599;-85
2023/12/07 09:07:53;;;;;;;30.07;23.10;;;2.50;99.90;;;;;;6309470;22;20144;-85
2023/12/07 09:10:19;;;;;;;32.33;22.47;;;2.50;99.90;;;;;;6282089;22;20239;-85
2023/12/07 09:12:45;;;;;;;28.03;21.40;;;2.50;99.90;;;;;;6282056;22;20514;-86
2023/12/07 09:15:12;;;;;;;30.37;21.93;;;2.50;99.90;;;;;;6282056;22;20159;-84
2023/12/07 09:17:39;;;;;;;30.13;21.43;;;2.50;99.90;;;;;;6282175;22;20190;-85
2023/12/07 09:20:07;;;;;;;30.53;21.33;;;2.50;99.90;;;;;;6309485;22;20193;-86
2023/12/07 09:22:33;;;;;;;29.53;21.67;;;2.50;99.90;;;;;;6282121;22;20164;-85
2023/12/07 09:24:59;;;;;;;27.60;20.77;;;2.60;99.90;;;;;;6309361;22;20229;-87
2023/12/07 09:27:25;;;;;;;32.13;20.93;;;2.50;99.90;;;;;;6281853;22;20171;-85
2023/12/07 09:29:51;;;;;;;28.83;20.87;;;2.60;99.90;;;;;;6282145;22;20160;-85
2023/12/07 09:32:17;;;;;;;27.43;20.17;;;2.60;99.90;;;;;;6281856;22;20527;-87
2023/12/07 09:34:43;;;;;;;30.50;21.20;;;2.70;99.90;;;;;;6281747;22;20231;-85
2023/12/07 09:37:11;;;;;;;32.20;21.80;;;2.70;99.90;;;;;;6308880;22;20147;-85
2023/12/07 09:39:37;;;;;;;28.20;19.67;;;2.80;99.90;;;;;;6309359;22;20154;-84
2023/12/07 09:42:03;;;;;;;28.20;20.23;;;2.80;99.90;;;;;;6281734;22;20171;-86
2023/12/07 09:44:29;;;;;;;27.83;20.07;;;2.90;99.90;;;;;;6309064;22;20564;-86
2023/12/07 09:46:55;;;;;;;26.47;19.87;;;3.00;99.90;;;;;;6307178;22;20202;-86
2023/12/07 09:49:24;;;;;;;26.43;20.23;;;3.00;99.90;;;;;;6312578;22;20511;-85
2023/12/07 09:51:51;;;;;;;29.30;19.77;;;3.00;99.90;;;;;;6311504;22;20159;-86
2023/12/07 09:54:19;;;;;;;28.77;19.07;;;3.10;99.90;;;;;;6312829;22;20558;-87
2023/12/07 09:56:44;;;;;;;26.27;19.13;;;3.10;99.90;;;;;;6312385;22;20465;-85
2023/12/07 09:59:10;;;;;;;27.27;18.33;;;3.10;99.90;;;;;;6312411;22;20466;-85
2023/12/07 10:01:36;;;;;;;25.17;19.13;;;3.10;99.90;;;;;;6313134;22;20182;-85
2023/12/07 10:04:23;;;;;;;28.40;19.30;;;3.10;99.90;;;;;;6313201;22;20189;-86
2023/12/07 10:06:50;;;;;;;26.93;19.13;;;3.10;99.90;;;;;;6312935;22;20256;-86
2023/12/07 10:09:18;;;;;;;26.10;18.90;;;3.10;99.90;;;;;;6313099;22;20620;-85
2023/12/07 10:11:44;;;;;;;27.73;19.13;;;3.10;99.90;;;;;;6340231;22;20214;-86
2023/12/07 10:14:10;;;;;;;25.97;19.03;;;3.20;99.90;;;;;;6313088;22;20538;-85
2023/12/07 10:16:37;;;;;;;30.77;19.57;;;3.20;99.90;;;;;;6340276;22;20159;-87
2023/12/07 10:19:24;;;;;;;26.07;18.97;;;3.20;99.90;;;;;;6312892;22;20470;-85
2023/12/07 10:21:51;;;;;;;25.53;18.87;;;3.30;99.90;;;;;;6313448;22;20608;-87
2023/12/07 10:24:18;;;;;;;26.97;19.33;;;3.30;99.90;;;;;;6314866;22;20155;-85
2023/12/07 10:26:45;;;;;;;29.67;18.50;;;3.30;99.90;;;;;;6313808;22;20190;-86
2023/12/07 10:29:11;;;;;;;24.73;17.43;;;3.30;99.90;;;;;;6315074;22;20211;-85
2023/12/07 10:31:37;;;;;;;29.50;19.80;;;3.30;99.90;;;;;;6313788;22;20582;-87
2023/12/07 10:34:04;;;;;;;26.97;18.50;;;3.30;99.90;;;;;;6314776;22;20155;-85
2023/12/07 10:36:31;;;;;;;25.60;18.67;;;3.30;99.90;;;;;;6314647;22;20489;-88
2023/12/07 10:38:56;;;;;;;33.73;19.57;;;3.40;99.90;;;;;;6314492;22;20155;-89
2023/12/07 10:41:24;;;;;;;26.57;18.80;;;3.30;99.90;;;;;;6313603;22;20166;-88
2023/12/07 10:43:53;;;;;;;27.93;19.20;;;3.30;99.90;;;;;;6315216;22;20151;-85
2023/12/07 10:46:21;;;;;;;25.27;18.03;;;3.40;99.90;;;;;;6341822;22;20296;-85
2023/12/07 10:48:56;;;;;;;26.33;18.80;;;3.40;99.90;;;;;;6314869;22;20232;-84
2023/12/07 10:51:34;;;;;;;25.23;18.40;;;3.40;99.90;;;;;;6314662;22;20247;-86
2023/12/07 10:54:04;;;;;;;28.00;19.60;;;3.40;99.90;;;;;;6314637;22;20147;-85
2023/12/07 10:56:41;;;;;;;28.53;18.37;;;3.40;99.90;;;;;;6310231;22;20159;-84
2023/12/07 10:59:11;;;;;;;29.37;18.43;;;3.40;99.90;;;;;;6341571;22;20181;-85
2023/12/07 11:01:42;;;;;;;26.07;19.17;;;3.40;99.90;;;;;;6314234;22;20155;-85
2023/12/07 11:04:12;;;;;;;27.43;18.00;;;3.40;99.90;;;;;;6314117;22;20157;-85
2023/12/07 11:06:39;;;;;;;26.27;18.37;;;3.50;99.90;;;;;;6313764;22;20476;-85
2023/12/07 11:09:13;;;;;;;25.63;19.07;;;3.50;99.90;;;;;;6313362;22;20147;-84
2023/12/07 11:11:44;;;;;;;29.50;18.23;;;3.50;99.90;;;;;;6313486;22;20148;-83
2023/12/07 11:14:11;;;;;;;28.63;18.00;;;3.50;99.90;;;;;;6314107;22;20150;-84
2023/12/07 11:16:40;;;;;;;25.73;17.73;;;3.50;99.90;;;;;;6313977;22;20170;-83
2023/12/07 11:19:29;;;;;;;28.03;18.47;;;3.50;99.90;;;;;;6314189;22;20159;-85
2023/12/07 11:21:56;;;;;;;23.83;17.50;;;3.50;99.90;;;;;;6313786;22;20169;-85
2023/12/07 11:24:24;;;;;;;24.30;17.13;;;3.50;99.90;;;;;;6313679;22;20570;-85
2023/12/07 11:26:59;;;;;;;25.67;17.03;;;3.50;99.90;;;;;;6313192;22;20183;-84
2023/12/07 11:29:28;;;;;;;22.47;17.37;;;3.50;99.90;;;;;;6314011;22;20551;-85
2023/12/07 11:31:57;;;;;;;23.47;17.10;;;3.50;99.90;;;;;;6313644;22;20163;-85
2023/12/07 11:34:42;;;;;;;22.57;16.73;;;3.50;99.90;;;;;;6341997;22;20551;-85
2023/12/07 11:37:10;;;;;;;25.67;15.77;;;3.50;99.90;;;;;;6313349;22;20162;-85
2023/12/07 11:39:42;;;;;;;21.57;16.80;;;3.50;99.90;;;;;;6340769;22;20178;-85
2023/12/07 11:42:20;;;;;;;26.20;16.57;;;3.50;99.90;;;;;;6312399;22;20627;-85
2023/12/07 11:44:50;;;;;;;25.07;16.07;;;3.50;99.90;;;;;;6314154;22;20570;-84
2023/12/07 11:47:20;;;;;;;22.33;16.37;;;3.50;99.90;;;;;;6313468;22;20206;-85
2023/12/07 11:49:47;;;;;;;24.17;17.03;;;3.50;99.90;;;;;;6313697;22;20148;-85
2023/12/07 11:52:18;;;;;;;23.13;15.83;;;3.50;99.90;;;;;;6313423;22;20220;-84
2023/12/07 11:54:48;;;;;;;20.80;16.40;;;3.60;99.90;;;;;;6312821;22;20205;-87
2023/12/07 11:57:15;;;;;;;24.67;16.27;;;3.60;99.90;;;;;;6313136;22;20156;-88
2023/12/07 11:59:45;;;;;;;23.00;16.50;;;3.60;99.90;;;;;;6313572;22;20159;-85
2023/12/07 12:02:11;;;;;;;22.57;15.40;;;3.60;99.90;;;;;;6312670;22;20228;-85
2023/12/07 12:04:38;;;;;;;22.63;15.90;;;3.70;99.90;;;;;;6313552;22;20201;-86
2023/12/07 12:07:04;;;;;;;20.77;15.17;;;3.60;99.90;;;;;;6313208;22;20552;-86
2023/12/07 12:09:30;;;;;;;23.30;15.53;;;3.70;99.90;;;;;;6340583;22;20154;-85
2023/12/07 12:12:00;;;;;;;21.10;15.70;;;3.70;99.90;;;;;;6313136;22;20159;-86
2023/12/07 12:14:27;;;;;;;22.07;14.47;;;3.70;99.90;;;;;;6313933;22;20151;-86
2023/12/07 12:16:53;;;;;;;20.90;15.13;;;3.70;99.90;;;;;;6340921;22;20178;-86
2023/12/07 12:19:19;;;;;;;21.03;14.63;;;3.70;99.90;;;;;;6341228;22;20532;-86
2023/12/07 12:21:47;;;;;;;18.73;13.77;;;3.70;99.90;;;;;;6313276;22;20465;-87
2023/12/07 12:24:13;;;;;;;20.63;15.33;;;3.60;99.90;;;;;;6313704;22;20204;-86
2023/12/07 12:26:43;;;;;;;22.17;15.17;;;3.70;99.90;;;;;;6313307;22;20191;-86
2023/12/07 12:29:11;;;;;;;17.40;13.93;;;3.60;99.90;;;;;;6341270;22;20144;-86
2023/12/07 12:31:38;;;;;;;21.40;14.27;;;3.60;99.90;;;;;;6313675;22;20162;-88
2023/12/07 12:34:08;;;;;;;18.87;15.37;;;3.70;99.90;;;;;;6313467;22;20155;-86
2023/12/07 12:36:34;;;;;;;18.70;14.17;;;3.70;99.90;;;;;;6313368;22;20159;-86
2023/12/07 12:39:02;;;;;;;19.33;13.97;;;3.70;99.90;;;;;;6313610;22;20155;-86
2023/12/07 12:41:30;;;;;;;21.23;14.20;;;3.70;99.90;;;;;;6313095;22;20570;-86
2023/12/07 12:43:56;;;;;;;19.27;14.03;;;3.70;99.90;;;;;;6313390;22;20628;-86
2023/12/07 12:46:23;;;;;;;18.53;14.27;;;3.70;99.90;;;;;;6308004;22;20645;-86
2023/12/07 12:49:01;;;;;;;19.63;14.00;;;3.80;99.90;;;;;;6313125;22;20155;-87
2023/12/07 12:51:29;;;;;;;20.77;14.43;;;3.80;99.90;;;;;;6340739;22;20424;-86
2023/12/07 12:53:56;;;;;;;18.97;13.47;;;3.70;99.90;;;;;;6340599;22;20565;-87
2023/12/07 12:56:22;;;;;;;18.77;13.33;;;3.70;99.90;;;;;;6340263;22;20150;-85
2023/12/07 12:58:50;;;;;;;21.10;14.93;;;3.70;99.90;;;;;;6340740;22;20173;-85
2023/12/07 13:01:17;;;;;;;16.70;13.60;;;3.70;99.90;;;;;;6312768;22;20558;-86
2023/12/07 13:03:45;;;;;;;21.40;14.70;;;3.70;99.90;;;;;;6312830;22;20159;-85
2023/12/07 13:06:12;;;;;;;19.27;14.43;;;3.70;99.90;;;;;;6311760;22;20222;-85
2023/12/07 13:08:38;;;;;;;17.57;13.70;;;3.70;99.90;;;;;;6313381;22;20162;-87
2023/12/07 13:11:04;;;;;;;20.27;14.60;;;3.70;99.90;;;;;;6340508;22;20452;-85
2023/12/07 13:13:29;;;;;;;21.43;14.77;;;3.80;99.90;;;;;;6339785;22;20136;-86
2023/12/07 13:15:55;;;;;;;18.30;14.03;;;3.70;99.90;;;;;;6312864;22;20209;-86
2023/12/07 13:18:21;;;;;;;20.83;14.13;;;3.70;99.90;;;;;;6312975;22;20155;-86
2023/12/07 13:20:47;;;;;;;17.37;13.67;;;3.70;99.90;;;;;;6312747;22;20159;-85
2023/12/07 13:23:12;;;;;;;18.27;13.70;;;3.70;99.90;;;;;;6312791;22;20159;-86
2023/12/07 13:25:38;;;;;;;26.40;14.87;;;3.70;99.90;;;;;;6336951;22;20179;-84
2023/12/07 13:28:04;;;;;;;19.27;13.53;;;3.70;99.90;;;;;;6311722;22;20158;-86
2023/12/07 13:30:35;;;;;;;18.03;13.37;;;3.70;99.90;;;;;;6311762;22;20578;-85
2023/12/07 13:33:01;;;;;;;18.93;14.20;;;3.70;99.90;;;;;;6312047;22;20175;-85
2023/12/07 13:35:27;;;;;;;19.37;13.50;;;3.70;99.90;;;;;;6312207;22;20147;-85
2023/12/07 13:37:53;;;;;;;20.37;13.90;;;3.60;99.90;;;;;;6312425;22;20201;-86
2023/12/07 13:40:18;;;;;;;18.00;13.03;;;3.60;99.90;;;;;;6311749;22;20154;-85
2023/12/07 13:42:44;;;;;;;22.73;14.00;;;3.60;99.90;;;;;;6311872;22;20162;-85
2023/12/07 13:45:11;;;;;;;17.87;12.93;;;3.60;99.90;;;;;;6310747;22;20183;-87
2023/12/07 13:47:37;;;;;;;16.90;13.20;;;3.60;99.90;;;;;;6312567;22;20241;-84
2023/12/07 13:50:04;;;;;;;18.60;13.77;;;3.60;99.90;;;;;;6312879;22;20185;-85
2023/12/07 13:52:31;;;;;;;19.13;12.83;;;3.60;99.90;;;;;;6312225;22;20155;-87
2023/12/07 13:54:58;;;;;;;18.33;13.37;;;3.60;99.90;;;;;;6312679;22;20148;-84
2023/12/07 13:57:24;;;;;;;16.70;12.57;;;3.60;99.90;;;;;;6312455;22;20155;-83
2023/12/07 13:59:50;;;;;;;17.67;12.60;;;3.60;99.90;;;;;;6314737;22;20155;-86
2023/12/07 14:02:17;;;;;;;17.13;13.47;;;3.60;99.90;;;;;;6314707;22;20214;-85
2023/12/07 14:04:44;;;;;;;17.73;12.30;;;3.60;99.90;;;;;;6314879;22;20147;-88
2023/12/07 14:07:10;;;;;;;19.57;13.13;;;3.50;99.90;;;;;;6313362;22;20585;-85
2023/12/07 14:09:37;;;;;;;19.97;13.07;;;3.60;99.90;;;;;;6314857;22;20234;-86
2023/12/07 14:12:04;;;;;;;16.07;12.87;;;3.50;99.90;;;;;;6313960;22;20180;-87
2023/12/07 14:14:30;;;;;;;21.57;14.00;;;3.50;99.90;;;;;;6314590;22;20155;-85
2023/12/07 14:16:56;;;;;;;15.67;12.27;;;3.50;99.90;;;;;;6313809;22;20565;-86
2023/12/07 14:19:21;;;;;;;15.67;12.47;;;3.50;99.90;;;;;;6314629;22;20159;-85
2023/12/07 14:21:47;;;;;;;19.20;12.87;;;3.40;99.90;;;;;;6314276;22;20241;-85
2023/12/07 14:24:13;;;;;;;14.83;12.17;;;3.50;99.90;;;;;;6313968;22;20159;-86
2023/12/07 14:26:43;;;;;;;15.13;11.83;;;3.40;99.90;;;;;;6312847;22;20198;-87
2023/12/07 14:29:09;;;;;;;17.93;12.60;;;3.40;99.90;;;;;;6312871;22;20162;-85
2023/12/07 14:31:37;;;;;;;16.87;12.77;;;3.40;99.90;;;;;;6314175;22;20155;-84
2023/12/07 14:34:03;;;;;;;20.63;12.87;;;3.40;99.90;;;;;;6313641;22;20155;-86
2023/12/07 14:36:29;;;;;;;18.40;13.20;;;3.30;99.90;;;;;;6313918;22;20197;-87
2023/12/07 14:38:55;;;;;;;17.33;13.10;;;3.30;99.90;;;;;;6313462;22;20163;-85
2023/12/07 14:41:22;;;;;;;16.87;13.43;;;3.30;99.90;;;;;;6313969;22;20190;-85
2023/12/07 14:43:48;;;;;;;18.33;13.00;;;3.30;99.90;;;;;;6310818;22;20457;-85
2023/12/07 14:46:14;;;;;;;22.37;14.40;;;3.30;99.90;;;;;;6297174;22;20206;-86
2023/12/07 14:48:40;;;;;;;19.77;13.63;;;3.30;99.90;;;;;;6283176;22;20152;-85
2023/12/07 14:51:06;;;;;;;17.20;13.13;;;3.20;99.90;;;;;;6283137;22;20166;-86
2023/12/07 14:53:33;;;;;;;17.67;13.03;;;3.20;99.90;;;;;;6283002;22;20180;-85
2023/12/07 14:56:00;;;;;;;19.67;12.90;;;3.20;99.90;;;;;;6282843;22;20160;-85
2023/12/07 14:58:26;;;;;;;21.23;14.00;;;3.20;99.90;;;;;;6282913;22;20554;-84
2023/12/07 15:00:53;;;;;;;20.07;13.90;;;3.20;99.90;;;;;;6281254;22;20208;-84
2023/12/07 15:03:19;;;;;;;19.50;14.23;;;3.10;99.90;;;;;;6282750;22;20566;-84
2023/12/07 15:05:45;;;;;;;19.93;14.10;;;3.10;99.90;;;;;;6282498;22;20264;-85
2023/12/07 15:08:11;;;;;;;17.17;13.57;;;3.10;99.90;;;;;;6282008;22;20155;-86
2023/12/07 15:10:37;;;;;;;19.37;13.87;;;3.10;99.90;;;;;;6309643;22;20159;-86
2023/12/07 15:13:03;;;;;;;16.30;12.43;;;3.10;99.90;;;;;;6282580;22;20516;-85
2023/12/07 15:15:30;;;;;;;17.80;13.80;;;3.10;99.90;;;;;;6282812;22;20493;-85
2023/12/07 15:17:56;;;;;;;18.33;13.83;;;3.10;99.90;;;;;;6310033;22;20174;-84
2023/12/07 15:20:23;;;;;;;17.87;13.40;;;3.10;99.90;;;;;;6310246;22;20231;-83
2023/12/07 15:22:49;;;;;;;20.27;13.23;;;3.10;99.90;;;;;;6282981;22;20166;-88
2023/12/07 15:25:15;;;;;;;18.30;13.27;;;3.10;99.90;;;;;;6281375;22;20179;-89
2023/12/07 15:27:41;;;;;;;18.67;13.60;;;3.00;99.90;;;;;;6283360;22;20205;-88
2023/12/07 15:30:09;;;;;;;18.53;12.90;;;3.00;99.90;;;;;;6282999;22;20231;-88
2023/12/07 15:32:35;;;;;;;22.27;13.90;;;3.00;99.90;;;;;;6282846;22;20160;-88
2023/12/07 15:35:01;;;;;;;19.83;13.57;;;3.00;99.90;;;;;;6282772;22;20598;-89
2023/12/07 15:37:27;;;;;;;18.60;13.43;;;3.00;99.90;;;;;;6283143;22;20155;-86
2023/12/07 15:39:53;;;;;;;22.43;13.77;;;3.00;99.90;;;;;;6309877;22;20148;-86
2023/12/07 15:42:18;;;;;;;18.37;13.80;;;3.00;99.90;;;;;;6309978;22;20179;-86
2023/12/07 15:44:44;;;;;;;21.17;13.03;;;3.00;99.90;;;;;;6310073;22;20559;-84
2023/12/07 15:47:11;;;;;;;19.67;13.60;;;3.00;99.90;;;;;;6311138;22;20269;-85
2023/12/07 15:49:36;;;;;;;19.83;13.13;;;3.00;99.90;;;;;;6313988;22;20212;-84
2023/12/07 15:52:03;;;;;;;19.07;12.90;;;2.90;99.90;;;;;;6313215;22;20561;-86
2023/12/07 15:54:31;;;;;;;20.07;13.47;;;3.00;99.90;;;;;;6313430;22;20155;-85
2023/12/07 15:56:57;;;;;;;19.37;13.73;;;2.90;99.90;;;;;;6313584;22;20156;-86
2023/12/07 15:59:23;;;;;;;19.80;13.23;;;2.90;99.90;;;;;;6341171;22;20174;-85
2023/12/07 16:01:51;;;;;;;18.93;13.53;;;2.90;99.90;;;;;;6311818;22;20151;-85
2023/12/07 16:04:18;;;;;;;18.97;12.93;;;2.90;99.90;;;;;;6313587;22;20155;-85
2023/12/07 16:06:44;;;;;;;18.90;13.97;;;2.90;99.90;;;;;;6340494;22;20182;-87
2023/12/07 16:09:10;;;;;;;20.53;13.90;;;2.90;99.90;;;;;;6311809;22;20561;-86
2023/12/07 16:11:36;;;;;;;22.60;13.90;;;2.90;99.90;;;;;;6312459;22;20440;-86
2023/12/07 16:14:02;;;;;;;19.37;14.00;;;2.90;99.90;;;;;;6311847;22;20185;-85
2023/12/07 16:16:27;;;;;;;19.30;13.77;;;2.90;99.90;;;;;;6312411;22;20162;-85
2023/12/07 16:18:53;;;;;;;18.67;13.17;;;2.90;99.90;;;;;;6313328;22;20156;-86
2023/12/07 16:21:23;;;;;;;19.37;13.47;;;2.90;99.90;;;;;;6312688;22;20459;-85
2023/12/07 16:23:48;;;;;;;20.27;13.00;;;2.90;99.90;;;;;;6313288;22;20538;-85
2023/12/07 16:26:14;;;;;;;19.23;13.30;;;2.90;99.90;;;;;;6313111;22;20187;-86
2023/12/07 16:28:40;;;;;;;17.00;12.60;;;2.90;99.90;;;;;;6313529;22;20558;-86
2023/12/07 16:31:06;;;;;;;17.20;12.57;;;2.80;99.90;;;;;;6313410;22;20569;-86
2023/12/07 16:33:33;;;;;;;18.67;13.43;;;2.90;99.90;;;;;;6313421;22;20151;-86
2023/12/07 16:35:59;;;;;;;22.20;13.83;;;2.80;99.90;;;;;;6313357;22;20228;-87
2023/12/07 16:38:24;;;;;;;20.10;13.63;;;2.90;99.90;;;;;;6313422;22;20562;-88
2023/12/07 16:40:50;;;;;;;19.93;13.33;;;2.80;99.90;;;;;;6340515;22;20151;-86
2023/12/07 16:43:16;;;;;;;18.77;13.23;;;2.80;99.90;;;;;;6313030;22;20162;-86
2023/12/07 16:45:42;;;;;;;21.50;13.40;;;2.80;99.90;;;;;;6312017;22;20199;-86
2023/12/07 16:48:07;;;;;;;18.17;13.47;;;2.80;99.90;;;;;;6340813;22;20147;-86
2023/12/07 16:50:35;;;;;;;18.07;13.17;;;2.80;99.90;;;;;;6340316;22;20147;-86
2023/12/07 16:53:01;;;;;;;21.03;12.90;;;2.70;99.90;;;;;;6339884;22;20171;-87
2023/12/07 16:55:28;;;;;;;18.10;12.93;;;2.80;99.90;;;;;;6312675;22;20589;-86
2023/12/07 16:57:54;;;;;;;16.63;13.07;;;2.80;99.90;;;;;;6313313;22;20155;-85
2023/12/07 17:00:20;;;;;;;16.13;13.17;;;2.80;99.90;;;;;;6313375;22;20157;-87
2023/12/07 17:02:46;;;;;;;19.27;12.50;;;2.70;99.90;;;;;;6312938;22;20162;-84
2023/12/07 17:05:14;;;;;;;19.63;12.73;;;2.70;99.90;;;;;;6312869;22;20457;-87
2023/12/07 17:07:40;;;;;;;17.50;12.50;;;2.70;99.90;;;;;;6313177;22;20220;-85
2023/12/07 17:10:06;;;;;;;20.13;11.60;;;2.70;99.90;;;;;;6340365;22;20221;-86
2023/12/07 17:12:32;;;;;;;16.33;11.70;;;2.70;99.90;;;;;;6312680;22;20205;-85
2023/12/07 17:14:58;;;;;;;15.30;10.90;;;2.60;99.90;;;;;;6312733;22;20198;-85
2023/12/07 17:17:23;;;;;;;14.43;10.77;;;2.60;99.90;;;;;;6311677;22;20177;-84
2023/12/07 17:19:49;;;;;;;14.83;11.27;;;2.60;99.90;;;;;;6312717;22;20151;-84
2023/12/07 17:22:15;;;;;;;13.77;10.90;;;2.60;99.90;;;;;;6312157;22;20162;-86
2023/12/07 17:24:40;;;;;;;14.20;11.07;;;2.50;99.90;;;;;;6312355;22;20479;-84
2023/12/07 17:27:06;;;;;;;12.20;9.90;;;2.50;99.90;;;;;;6312472;22;20187;-84
2023/12/07 17:29:32;;;;;;;14.37;9.83;;;2.50;99.90;;;;;;6311983;22;20155;-84
2023/12/07 17:31:58;;;;;;;13.33;10.13;;;2.40;99.90;;;;;;6339516;22;20554;-85
2023/12/07 17:34:25;;;;;;;12.93;10.00;;;2.40;99.90;;;;;;6311664;22;20468;-85
2023/12/07 17:36:51;;;;;;;12.10;8.87;;;2.30;99.90;;;;;;6311831;22;20190;-86
2023/12/07 17:39:17;;;;;;;15.33;9.33;;;2.20;99.90;;;;;;6312230;22;20151;-85
2023/12/07 17:41:43;;;;;;;11.70;8.40;;;2.20;99.90;;;;;;6312005;22;20170;-85
2023/12/07 17:44:09;;;;;;;12.60;9.23;;;2.10;99.90;;;;;;6312496;22;20161;-85
2023/12/07 17:46:36;;;;;;;11.17;8.57;;;2.00;99.90;;;;;;6312288;22;20210;-86
2023/12/07 17:49:02;;;;;;;12.83;8.37;;;2.00;99.90;;;;;;6312600;22;20151;-86
2023/12/07 17:51:29;;;;;;;11.53;8.60;;;1.90;99.90;;;;;;6312324;22;20166;-86
2023/12/07 17:53:55;;;;;;;14.60;9.03;;;1.90;99.90;;;;;;6312146;22;20156;-86
2023/12/07 17:56:22;;;;;;;12.43;9.70;;;1.90;99.90;;;;;;6311930;22;20502;-86
2023/12/07 17:58:48;;;;;;;15.80;9.73;;;1.80;99.90;;;;;;6310760;22;20155;-86
2023/12/07 18:01:21;;;;;;;13.90;9.87;;;1.80;99.90;;;;;;6310872;22;20173;-86
2023/12/07 18:03:47;;;;;;;14.20;9.63;;;1.80;99.90;;;;;;6310452;22;20235;-87
2023/12/07 18:06:13;;;;;;;16.43;10.63;;;1.70;99.90;;;;;;6310415;22;20928;-86
2023/12/07 18:08:38;;;;;;;13.23;10.40;;;1.70;99.90;;;;;;6310746;22;20151;-86
2023/12/07 18:11:04;;;;;;;13.93;10.83;;;1.70;99.90;;;;;;6337645;22;20154;-87
2023/12/07 18:13:30;;;;;;;14.97;9.83;;;1.60;99.90;;;;;;6310701;22;20171;-86
2023/12/07 18:15:56;;;;;;;14.50;10.03;;;1.60;99.90;;;;;;6310573;22;20155;-86
2023/12/07 18:18:21;;;;;;;16.43;10.47;;;1.60;99.90;;;;;;6312458;22;20160;-87
2023/12/07 18:20:47;;;;;;;12.37;9.33;;;1.60;99.90;;;;;;6311693;22;20158;-86
2023/12/07 18:23:13;;;;;;;12.43;9.03;;;1.50;99.90;;;;;;6310488;22;20163;-86